Time;durP1;ratioP1;P1;durP2;ratioP2;P2;SDS_P1;SDS_P2;PMS_P1;PMS_P2;Temp;Humidity;BMP_temperature;BMP_pressure;BME280_temperature;BME280_humidity;BME280_pressure;Samples;Min_cycle;Max_cycle;Signal;HPM_P1;HPM_P2
2021/07/14 16:00:51;;;;;;;22.83;13.93;;;;;;;32.17;38.01;98476.95;125515;1092;102910;-69
2021/07/14 16:03:20;;;;;;;20.50;13.60;;;;;;;32.18;38.35;98478.61;125656;1093;103418;-69
2021/07/14 16:05:49;;;;;;;22.10;13.63;;;;;;;32.19;38.13;98478.36;125536;1093;103415;-69
2021/07/14 16:08:18;;;;;;;23.95;14.45;;;;;;;32.12;37.88;98476.93;125631;1094;102916;-71
2021/07/14 16:10:49;;;;;;;21.60;13.50;;;;;;;32.08;37.98;98469.22;125616;1096;103123;-70
2021/07/14 16:13:18;;;;;;;23.70;15.10;;;;;;;32.08;38.10;98471.96;125686;1093;102947;-70
2021/07/14 16:15:51;;;;;;;25.33;14.73;;;;;;;32.10;38.48;98465.37;125642;1096;104472;-70
2021/07/14 16:18:23;;;;;;;22.53;14.30;;;;;;;32.07;38.47;98459.30;125651;1095;103083;-69
2021/07/14 16:20:51;;;;;;;25.80;14.37;;;;;;;32.03;38.50;98446.38;125720;1094;102939;-73
2021/07/14 16:23:20;;;;;;;20.50;13.87;;;;;;;32.02;38.65;98447.47;125772;1093;102942;-71
2021/07/14 16:25:49;;;;;;;24.90;14.17;;;;;;;32.01;38.83;98446.63;125584;1095;103087;-73
2021/07/14 16:28:18;;;;;;;24.00;14.27;;;;;;;32.01;38.73;98443.88;125456;1095;102978;-71
2021/07/14 16:30:46;;;;;;;21.63;13.90;;;;;;;31.99;39.03;98440.59;125524;1094;102509;-72
2021/07/14 16:33:15;;;;;;;20.47;13.07;;;;;;;31.97;39.11;98441.94;125428;1095;103004;-67
2021/07/14 16:35:49;;;;;;;22.50;13.70;;;;;;;31.97;39.02;98434.53;125457;1093;103049;-67
2021/07/14 16:38:19;;;;;;;21.70;14.07;;;;;;;31.96;39.29;98424.63;125599;1095;103001;-69
2021/07/14 16:40:48;;;;;;;21.60;13.80;;;;;;;31.94;39.19;98429.56;125595;1096;103007;-68
2021/07/14 16:43:17;;;;;;;23.43;14.93;;;;;;;31.92;39.00;98435.31;125612;1094;103007;-68
2021/07/14 16:45:47;;;;;;;22.00;13.97;;;;;;;31.90;39.19;98433.95;125676;1094;102936;-68
2021/07/14 16:48:16;;;;;;;20.93;14.33;;;;;;;31.86;39.54;98427.32;125570;1095;103689;-68
2021/07/14 16:50:45;;;;;;;21.87;14.33;;;;;;;31.78;39.30;98432.23;125672;1092;102914;-67
2021/07/14 16:53:13;;;;;;;20.80;13.30;;;;;;;31.74;39.53;98425.61;125657;1094;103001;-69
2021/07/14 16:55:42;;;;;;;23.77;14.63;;;;;;;31.72;39.52;98413.20;125642;1095;103060;-67
2021/07/14 16:58:10;;;;;;;22.50;14.33;;;;;;;31.72;39.60;98416.80;125668;1095;103378;-66
2021/07/14 17:00:41;;;;;;;25.43;14.90;;;;;;;31.70;39.67;98418.95;125596;1093;102922;-67
2021/07/14 17:03:11;;;;;;;23.17;14.57;;;;;;;31.68;39.39;98418.39;125606;1095;102923;-68
2021/07/14 17:05:41;;;;;;;24.23;14.83;;;;;;;31.65;39.69;98424.42;125645;1092;102946;-68
2021/07/14 17:08:11;;;;;;;24.13;14.70;;;;;;;31.65;39.69;98412.61;125604;1095;102952;-66
2021/07/14 17:10:40;;;;;;;23.63;14.17;;;;;;;31.62;39.83;98411.20;125653;1095;103004;-68
2021/07/14 17:13:12;;;;;;;21.70;13.63;;;;;;;31.61;39.44;98412.30;125628;1093;103229;-67
2021/07/14 17:15:40;;;;;;;24.23;14.77;;;;;;;31.59;40.21;98404.33;125683;1093;103041;-67
2021/07/14 17:18:10;;;;;;;23.50;14.93;;;;;;;31.56;39.74;98406.80;125612;1092;102909;-67
2021/07/14 17:20:40;;;;;;;23.97;13.07;;;;;;;31.48;39.91;98413.60;125682;1092;103075;-69
2021/07/14 17:23:10;;;;;;;22.17;13.40;;;;;;;31.42;39.82;98410.01;125673;1094;102919;-70
2021/07/14 17:25:42;;;;;;;21.27;13.63;;;;;;;31.38;39.81;98402.57;125610;1093;102918;-67
2021/07/14 17:28:13;;;;;;;23.50;14.10;;;;;;;31.35;40.19;98403.91;125593;1093;103023;-67
2021/07/14 17:30:43;;;;;;;24.03;14.93;;;;;;;31.30;40.45;98404.72;125621;1092;102928;-65
2021/07/14 17:33:14;;;;;;;22.57;14.33;;;;;;;31.22;40.62;98399.70;125593;1093;103210;-67
2021/07/14 17:35:42;;;;;;;25.00;14.50;;;;;;;31.15;40.56;98397.20;125574;1092;102919;-67
2021/07/14 17:38:13;;;;;;;22.20;15.27;;;;;;;31.10;40.70;98397.13;125544;1093;102937;-67
2021/07/14 17:40:41;;;;;;;25.83;15.30;;;;;;;31.04;40.34;98403.67;125668;1093;102913;-68
2021/07/14 17:43:12;;;;;;;24.50;15.90;;;;;;;30.98;40.40;98407.45;125585;1092;103010;-68
2021/07/14 17:45:40;;;;;;;23.00;15.73;;;;;;;30.91;41.01;98406.84;125571;1093;103159;-66
2021/07/14 17:48:09;;;;;;;22.87;15.10;;;;;;;30.86;41.14;98404.89;125607;1093;103043;-70
2021/07/14 17:50:40;;;;;;;22.97;15.23;;;;;;;30.83;40.83;98411.72;125613;1093;103047;-66
2021/07/14 17:53:09;;;;;;;27.33;16.63;;;;;;;30.78;40.93;98410.86;125699;1093;103015;-65
2021/07/14 17:55:38;;;;;;;25.87;15.40;;;;;;;30.74;41.50;98416.05;125543;1093;103003;-66
2021/07/14 17:58:07;;;;;;;36.23;18.97;;;;;;;30.70;41.10;98412.98;125461;1093;102939;-66
2021/07/14 18:00:35;;;;;;;37.20;21.10;;;;;;;30.64;41.97;98416.76;125583;1095;102932;-65
2021/07/14 18:03:04;;;;;;;136.77;47.83;;;;;;;30.58;41.60;98407.66;125404;1093;103069;-65
2021/07/14 18:05:34;;;;;;;82.80;37.57;;;;;;;30.49;41.71;98409.17;126735;1093;102922;-65
2021/07/14 18:08:04;;;;;;;66.23;32.30;;;;;;;30.42;41.76;98411.29;125385;1093;103013;-64
2021/07/14 18:10:32;;;;;;;66.10;33.70;;;;;;;30.35;41.85;98411.50;126074;1093;103082;-65
2021/07/14 18:13:01;;;;;;;57.13;30.87;;;;;;;30.30;42.40;98417.77;125398;1092;103013;-66
2021/07/14 18:15:30;;;;;;;54.50;30.87;;;;;;;30.25;42.61;98412.23;125496;1093;103065;-64
2021/07/14 18:17:58;;;;;;;52.63;31.80;;;;;;;30.20;42.58;98412.16;125548;1096;103042;-66
2021/07/14 18:20:27;;;;;;;47.00;29.17;;;;;;;30.17;42.66;98415.41;125490;1093;103011;-65
2021/07/14 18:22:56;;;;;;;43.20;26.50;;;;;;;30.10;42.49;98418.37;125332;1096;102918;-66
2021/07/14 18:25:26;;;;;;;33.75;20.50;;;;;;;30.01;42.91;98419.89;125520;1093;103014;-65
2021/07/14 18:27:54;;;;;;;38.20;25.75;;;;;;;29.93;42.76;98415.66;125484;1094;103061;-65
2021/07/14 18:30:23;;;;;;;38.53;24.33;;;;;;;29.88;43.35;98418.34;125531;1093;102997;-66
2021/07/14 18:32:52;;;;;;;38.57;24.90;;;;;;;29.82;43.13;98420.16;125611;1092;103015;-66
2021/07/14 18:35:21;;;;;;;36.00;23.87;;;;;;;29.80;43.31;98430.55;125580;1094;103093;-66
2021/07/14 18:37:52;;;;;;;36.10;24.10;;;;;;;29.76;43.42;98423.09;125770;1093;103030;-66
2021/07/14 18:40:22;;;;;;;33.57;23.37;;;;;;;29.70;43.71;98414.80;125599;1096;103383;-67
2021/07/14 18:42:51;;;;;;;33.67;24.00;;;;;;;29.67;43.85;98429.01;125584;1093;102914;-65
2021/07/14 18:45:19;;;;;;;35.93;26.17;;;;;;;29.62;44.01;98433.59;125638;1093;102938;-66
2021/07/14 18:47:49;;;;;;;36.37;25.43;;;;;;;29.56;44.62;98439.00;125519;1092;103540;-67
2021/07/14 18:50:19;;;;;;;32.63;18.77;;;;;;;29.48;44.13;98436.69;126064;1092;102921;-65
2021/07/14 18:52:50;;;;;;;33.10;19.57;;;;;;;29.34;44.52;98433.44;125528;1093;102995;-66
2021/07/14 18:55:19;;;;;;;30.03;19.33;;;;;;;29.23;44.22;98439.83;126567;1093;101925;-65
2021/07/14 18:57:49;;;;;;;26.53;17.50;;;;;;;29.14;44.38;98449.55;125647;1093;102985;-68
2021/07/14 19:00:26;;;;;;;25.53;17.13;;;;;;;29.03;44.86;98452.11;125622;1093;103077;-68
2021/07/14 19:02:55;;;;;;;27.87;17.80;;;;;;;28.95;44.74;98461.55;125668;1093;103007;-69
2021/07/14 19:05:23;;;;;;;27.97;17.30;;;;;;;28.93;45.06;98468.36;125560;1093;103397;-70
2021/07/14 19:07:52;;;;;;;27.77;19.30;;;;;;;28.91;45.16;98470.51;125631;1092;102923;-69
2021/07/14 19:10:25;;;;;;;26.60;18.80;;;;;;;28.86;45.53;98475.89;125643;1093;102916;-68
2021/07/14 19:12:56;;;;;;;29.27;19.00;;;;;;;28.79;45.50;98476.86;125659;1093;102911;-68
2021/07/14 19:15:26;;;;;;;26.53;19.77;;;;;;;28.78;45.78;98482.59;125645;1093;103102;-67
2021/07/14 19:17:55;;;;;;;33.67;21.23;;;;;;;28.80;46.34;98491.39;125340;1093;103065;-66
2021/07/14 19:20:26;;;;;;;29.40;20.77;;;;;;;28.79;45.90;98487.00;125638;1093;102938;-67
2021/07/14 19:22:57;;;;;;;29.95;20.25;;;;;;;28.80;46.49;98499.60;125560;1093;103034;-66
2021/07/14 19:25:27;;;;;;;30.47;20.83;;;;;;;28.77;46.68;98503.64;125545;1092;103137;-65
2021/07/14 19:27:56;;;;;;;28.70;20.40;;;;;;;28.76;46.87;98501.98;125617;1095;102994;-66
2021/07/14 19:30:29;;;;;;;25.13;20.03;;;;;;;28.74;46.63;98503.28;125587;1092;102919;-66
2021/07/14 19:32:57;;;;;;;;;;;;;;;28.68;46.98;98503.18;125637;1093;102926;-67
2021/07/14 19:35:27;;;;;;;31.40;19.63;;;;;;;28.59;46.88;98501.91;125650;1093;102965;-67
2021/07/14 19:37:56;;;;;;;29.30;19.77;;;;;;;28.47;47.01;98504.69;125614;1095;103043;-69
2021/07/14 19:40:26;;;;;;;30.80;19.87;;;;;;;28.37;46.82;98513.52;125525;1095;102982;-69
2021/07/14 19:42:54;;;;;;;31.50;20.50;;;;;;;28.34;47.57;98507.69;125668;1093;103028;-67
2021/07/14 19:45:24;;;;;;;26.80;19.60;;;;;;;28.30;47.49;98504.62;125709;1092;102920;-68
2021/07/14 19:47:52;;;;;;;28.27;21.07;;;;;;;28.29;47.69;98500.22;125574;1093;103006;-67
2021/07/14 19:50:22;;;;;;;27.57;19.60;;;;;;;28.27;47.49;98513.30;125537;1093;103000;-67
2021/07/14 19:52:51;;;;;;;30.07;20.67;;;;;;;28.27;47.92;98505.09;125607;1092;102942;-67
2021/07/14 19:55:20;;;;;;;30.07;20.93;;;;;;;28.26;47.99;98495.23;125635;1092;103065;-66
2021/07/14 19:57:53;;;;;;;28.83;20.63;;;;;;;28.20;47.96;98488.84;125627;1093;103180;-66
2021/07/14 20:00:24;;;;;;;30.93;22.13;;;;;;;28.06;48.12;98488.25;125660;1092;102918;-66
2021/07/14 20:02:54;;;;;;;29.57;20.63;;;;;;;27.93;48.05;98488.49;126451;1093;102994;-67
2021/07/14 20:05:23;;;;;;;31.43;20.47;;;;;;;27.79;48.32;98483.27;125663;1093;103042;-66
2021/07/14 20:07:53;;;;;;;29.17;20.77;;;;;;;27.67;48.28;98485.20;125655;1093;102916;-64
2021/07/14 20:10:26;;;;;;;29.90;20.70;;;;;;;27.59;48.70;98486.36;125484;1092;103100;-76
2021/07/14 20:12:54;;;;;;;32.53;21.57;;;;;;;27.57;48.58;98485.77;125656;1092;102987;-73
2021/07/14 20:15:22;;;;;;;33.07;21.97;;;;;;;27.59;48.95;98493.74;125607;1093;103169;-73
2021/07/14 20:17:51;;;;;;;29.70;20.63;;;;;;;27.60;49.20;98484.48;125685;1093;102913;-75
2021/07/14 20:20:21;;;;;;;31.83;22.97;;;;;;;27.60;49.14;98495.41;125632;1093;102949;-73
2021/07/14 20:22:51;;;;;;;31.57;20.13;;;;;;;27.59;49.37;98496.48;125596;1093;103028;-74
2021/07/14 20:25:20;;;;;;;27.27;19.13;;;;;;;27.59;49.45;98491.02;125612;1095;103016;-75
2021/07/14 20:27:48;;;;;;;27.67;19.13;;;;;;;27.56;49.55;98495.03;125599;1093;103488;-73
2021/07/14 20:30:17;;;;;;;29.97;20.53;;;;;;;27.53;49.50;98497.41;125655;1095;102920;-74
2021/07/14 20:32:45;;;;;;;29.57;19.70;;;;;;;27.41;49.75;98489.19;125662;1096;103058;-72
2021/07/14 20:35:17;;;;;;;27.07;17.90;;;;;;;27.34;49.56;98490.13;125598;1093;103417;-72
2021/07/14 20:37:45;;;;;;;27.23;19.13;;;;;;;27.29;49.99;98483.72;125616;1092;103087;-73
2021/07/14 20:40:14;;;;;;;26.27;18.43;;;;;;;27.23;49.87;98476.47;125663;1093;102994;-73
2021/07/14 20:42:44;;;;;;;28.30;20.20;;;;;;;27.14;49.98;98465.89;125663;1093;103013;-74
2021/07/14 20:45:15;;;;;;;26.27;18.83;;;;;;;27.04;50.11;98474.66;125684;1093;103077;-72
2021/07/14 20:47:45;;;;;;;31.53;20.73;;;;;;;26.97;50.64;98460.28;125687;1092;102914;-72
2021/07/14 20:50:21;;;;;;;34.37;21.07;;;;;;;26.94;50.66;98466.20;125657;1093;102916;-72
2021/07/14 20:52:52;;;;;;;31.70;21.27;;;;;;;26.94;50.75;98468.08;125649;1094;103182;-72
2021/07/14 20:55:22;;;;;;;33.40;21.90;;;;;;;26.93;50.98;98456.35;125680;1095;102925;-72
2021/07/14 20:57:51;;;;;;;31.30;21.63;;;;;;;26.90;51.01;98457.63;125647;1093;103051;-71
2021/07/14 21:00:21;;;;;;;28.10;20.97;;;;;;;26.85;51.15;98452.07;125665;1093;103364;-72
2021/07/14 21:02:56;;;;;;;29.53;20.97;;;;;;;26.77;51.07;98454.25;125729;1093;102917;-73
2021/07/14 21:05:27;;;;;;;27.43;20.10;;;;;;;26.69;50.85;98448.08;125667;1095;102965;-72
2021/07/14 21:07:56;;;;;;;28.77;20.40;;;;;;;26.64;51.36;98456.13;125654;1096;102975;-72
2021/07/14 21:10:25;;;;;;;28.90;20.63;;;;;;;26.63;51.64;98451.73;125637;1095;103000;-72
2021/07/14 21:12:55;;;;;;;27.80;20.65;;;;;;;26.63;51.81;98445.43;125667;1094;102972;-71
2021/07/14 21:15:23;;;;;;;27.45;20.95;;;;;;;26.62;52.11;98450.07;125681;1096;103090;-72
2021/07/14 21:17:52;;;;;;;28.53;20.53;;;;;;;26.59;51.94;98448.63;125702;1092;103026;-73
2021/07/14 21:20:25;;;;;;;29.60;20.00;;;;;;;26.59;51.89;98443.16;125717;1093;103370;-72
2021/07/14 21:22:54;;;;;;;32.20;20.63;;;;;;;26.58;52.37;98446.95;125656;1096;103370;-72
2021/07/14 21:25:25;;;;;;;28.47;19.10;;;;;;;26.55;52.17;98447.41;125512;1093;103062;-72
2021/07/14 21:27:53;;;;;;;33.03;19.33;;;;;;;26.51;52.50;98454.39;125672;1096;103133;-72
2021/07/14 21:30:26;;;;;;;26.40;18.63;;;;;;;26.44;52.17;98448.22;125630;1092;102972;-72
2021/07/14 21:32:58;;;;;;;29.07;19.37;;;;;;;26.35;52.50;98442.23;125635;1093;102914;-71
2021/07/14 21:35:26;;;;;;;30.70;20.77;;;;;;;26.23;52.96;98439.46;125664;1093;103421;-71
2021/07/14 21:37:55;;;;;;;27.37;19.13;;;;;;;26.07;53.15;98435.44;126448;1093;102406;-72
2021/07/14 21:40:27;;;;;;;29.73;20.87;;;;;;;25.98;52.91;98439.52;125659;1093;102628;-71
2021/07/14 21:42:59;;;;;;;37.60;21.40;;;;;;;25.90;53.42;98431.65;125592;1093;103492;-72
2021/07/14 21:45:28;;;;;;;;;;;;;;;25.76;53.54;98430.97;125704;1093;103052;-72
2021/07/14 21:47:57;;;;;;;28.97;19.97;;;;;;;25.69;53.56;98431.88;125691;1093;103370;-71
2021/07/14 21:50:29;;;;;;;29.90;22.13;;;;;;;25.65;53.90;98432.56;125720;1093;102997;-71
2021/07/14 21:53:00;;;;;;;27.70;22.05;;;;;;;25.56;53.52;98427.41;125651;1095;102917;-72
2021/07/14 21:55:28;;;;;;;33.03;21.93;;;;;;;25.53;54.05;98425.13;125654;1093;103191;-71
2021/07/14 21:57:57;;;;;;;28.87;21.20;;;;;;;25.49;54.20;98431.26;125666;1096;102991;-72
2021/07/14 22:00:37;;;;;;;37.03;20.40;;;;;;;25.47;54.26;98427.93;125617;1095;103125;-72
2021/07/14 22:03:09;;;;;;;29.80;20.60;;;;;;;25.47;54.15;98422.48;125749;1093;102938;-71
2021/07/14 22:05:43;;;;;;;29.28;21.68;;;;;;;25.40;54.47;98427.97;125648;1095;103017;-70
2021/07/14 22:08:18;;;;;;;27.77;20.43;;;;;;;25.36;54.28;98433.02;125647;1096;102979;-72
2021/07/14 22:11:14;;;;;;;31.53;21.57;;;;;;;25.31;54.60;98430.13;125728;1096;103053;-71
2021/07/14 22:13:45;;;;;;;28.80;19.83;;;;;;;25.27;55.03;98434.34;125649;1096;102916;-72
2021/07/14 22:16:15;;;;;;;28.67;21.07;;;;;;;25.22;54.44;98436.93;125654;1095;103072;-71
2021/07/14 22:18:47;;;;;;;32.27;22.73;;;;;;;25.16;54.98;98438.63;125641;1096;102953;-71
2021/07/14 22:21:16;;;;;;;28.90;20.43;;;;;;;25.10;55.26;98445.80;125618;1093;103039;-71
2021/07/14 22:23:48;;;;;;;31.40;23.00;;;;;;;25.06;54.98;98446.48;125665;1096;102888;-71
2021/07/14 22:26:20;;;;;;;30.70;21.80;;;;;;;25.07;55.55;98445.40;125662;1093;103412;-72
2021/07/14 22:28:54;;;;;;;31.27;22.13;;;;;;;25.08;55.15;98456.08;125693;1093;103126;-72
2021/07/14 22:31:33;;;;;;;30.70;21.10;;;;;;;25.11;55.89;98449.34;125675;1094;103524;-72
2021/07/14 22:34:11;;;;;;;31.67;20.43;;;;;;;25.15;55.58;98457.92;125682;1095;103011;-72
2021/07/14 22:36:39;;;;;;;29.73;21.73;;;;;;;25.14;55.54;98470.67;125658;1095;102926;-71
2021/07/14 22:39:10;;;;;;;26.50;20.07;;;;;;;25.12;55.66;98470.06;127123;1094;103099;-71
2021/07/14 22:41:43;;;;;;;32.23;21.53;;;;;;;25.09;55.87;98470.50;125666;1092;103011;-71
2021/07/14 22:44:14;;;;;;;29.60;21.63;;;;;;;25.04;56.07;98471.17;125648;1096;102906;-72
2021/07/14 22:46:43;;;;;;;32.43;22.27;;;;;;;24.95;55.87;98469.77;125624;1095;102930;-72
2021/07/14 22:49:12;;;;;;;29.87;22.33;;;;;;;24.82;56.35;98468.83;125665;1096;103435;-71
2021/07/14 22:51:41;;;;;;;31.23;22.00;;;;;;;24.71;55.79;98476.80;125673;1094;102984;-72
2021/07/14 22:54:09;;;;;;;31.27;21.70;;;;;;;24.63;56.04;98470.58;127623;1096;100869;-72
2021/07/14 22:56:38;;;;;;;25.90;19.00;;;;;;;24.55;56.77;98476.27;126382;1094;102939;-71
2021/07/14 22:59:07;;;;;;;28.70;21.57;;;;;;;24.51;56.35;98469.59;125726;1095;103557;-70
2021/07/14 23:01:35;;;;;;;29.47;20.27;;;;;;;24.47;56.73;98474.62;125911;1093;103011;-71
2021/07/14 23:04:04;;;;;;;30.20;21.53;;;;;;;24.43;56.59;98483.44;125691;1093;102948;-71
2021/07/14 23:06:33;;;;;;;31.63;22.97;;;;;;;24.38;57.03;98475.94;125762;1092;102925;-71
2021/07/14 23:09:04;;;;;;;28.87;21.47;;;;;;;24.35;56.79;98474.47;125703;1095;103119;-71
2021/07/14 23:11:34;;;;;;;30.90;21.53;;;;;;;24.34;57.51;98464.65;125657;1093;102948;-72
2021/07/14 23:14:06;;;;;;;28.17;20.97;;;;;;;24.35;57.16;98465.50;125694;1093;102920;-73
2021/07/14 23:16:34;;;;;;;35.43;21.87;;;;;;;24.32;57.24;98474.90;125676;1093;102913;-72
2021/07/14 23:19:05;;;;;;;30.93;22.87;;;;;;;24.32;57.53;98487.66;125743;1093;102913;-72
2021/07/14 23:21:34;;;;;;;29.27;21.87;;;;;;;24.33;57.39;98486.62;125719;1093;102936;-71
2021/07/14 23:24:03;;;;;;;28.60;21.00;;;;;;;24.35;57.71;98490.77;125682;1093;103035;-71
2021/07/14 23:26:31;;;;;;;30.53;22.57;;;;;;;24.39;57.68;98485.76;125762;1093;102920;-71
2021/07/14 23:28:59;;;;;;;32.03;21.30;;;;;;;24.41;58.15;98483.66;125764;1093;103007;-71
2021/07/14 23:31:28;;;;;;;28.17;20.83;;;;;;;24.44;57.62;98485.10;125688;1095;103013;-71
2021/07/14 23:33:59;;;;;;;27.15;21.00;;;;;;;24.45;57.98;98478.61;125630;1093;102994;-71
2021/07/14 23:36:31;;;;;;;28.27;21.20;;;;;;;24.42;57.94;98469.02;125660;1093;102917;-71
2021/07/14 23:38:59;;;;;;;28.67;20.63;;;;;;;24.41;57.75;98472.79;125687;1093;103064;-72
2021/07/14 23:41:27;;;;;;;32.77;21.70;;;;;;;24.37;58.10;98474.27;125723;1093;102998;-72
2021/07/14 23:43:56;;;;;;;28.97;19.90;;;;;;;24.32;58.01;98474.90;125720;1093;103033;-72
2021/07/14 23:46:24;;;;;;;30.53;22.00;;;;;;;24.34;58.37;98480.95;125735;1096;103001;-71
2021/07/14 23:48:55;;;;;;;32.77;21.70;;;;;;;24.38;58.24;98478.66;125676;1093;103093;-71
2021/07/14 23:51:24;;;;;;;28.57;20.30;;;;;;;24.40;58.40;98484.71;125683;1094;103010;-72
2021/07/14 23:53:52;;;;;;;28.00;20.23;;;;;;;24.46;58.22;98496.59;125693;1093;103367;-72
2021/07/14 23:56:24;;;;;;;32.83;20.93;;;;;;;24.48;58.78;98506.19;125692;1094;102970;-71
2021/07/14 23:58:52;;;;;;;27.40;21.23;;;;;;;24.49;58.71;98521.44;125690;1093;102942;-73
